sensor_id;sensor_type;location;lat;lon;timestamp;P1;durP1;ratioP1;P2;durP2;ratioP2
5682;SDS011;2864;49.220;8.654;2022-12-07T00:01:04;15.13;;;10.27;;
5682;SDS011;2864;49.220;8.654;2022-12-07T00:03:34;15.17;;;9.83;;
5682;SDS011;2864;49.220;8.654;2022-12-07T00:06:01;16.53;;;10.57;;
5682;SDS011;2864;49.220;8.654;2022-12-07T00:08:27;16.27;;;10.77;;
5682;SDS011;2864;49.220;8.654;2022-12-07T00:10:53;13.93;;;10.50;;
5682;SDS011;2864;49.220;8.654;2022-12-07T00:13:19;15.70;;;10.07;;
5682;SDS011;2864;49.220;8.654;2022-12-07T00:15:45;16.03;;;10.53;;
5682;SDS011;2864;49.220;8.654;2022-12-07T00:18:10;16.27;;;11.07;;
5682;SDS011;2864;49.220;8.654;2022-12-07T00:20:36;15.70;;;10.97;;
5682;SDS011;2864;49.220;8.654;2022-12-07T00:23:02;19.13;;;11.53;;
5682;SDS011;2864;49.220;8.654;2022-12-07T00:25:29;17.27;;;10.80;;
5682;SDS011;2864;49.220;8.654;2022-12-07T00:27:55;14.63;;;10.10;;
5682;SDS011;2864;49.220;8.654;2022-12-07T00:30:22;15.87;;;10.70;;
5682;SDS011;2864;49.220;8.654;2022-12-07T00:32:48;14.70;;;10.73;;
5682;SDS011;2864;49.220;8.654;2022-12-07T00:35:14;14.60;;;10.57;;
5682;SDS011;2864;49.220;8.654;2022-12-07T00:37:40;16.07;;;10.77;;
5682;SDS011;2864;49.220;8.654;2022-12-07T00:40:06;18.50;;;10.97;;
5682;SDS011;2864;49.220;8.654;2022-12-07T00:42:32;16.37;;;11.47;;
5682;SDS011;2864;49.220;8.654;2022-12-07T00:44:58;14.77;;;10.60;;
5682;SDS011;2864;49.220;8.654;2022-12-07T00:47:23;14.70;;;10.67;;
5682;SDS011;2864;49.220;8.654;2022-12-07T00:49:49;16.60;;;11.17;;
5682;SDS011;2864;49.220;8.654;2022-12-07T00:52:15;16.40;;;11.70;;
5682;SDS011;2864;49.220;8.654;2022-12-07T00:54:41;17.60;;;12.03;;
5682;SDS011;2864;49.220;8.654;2022-12-07T00:57:06;20.33;;;12.40;;
5682;SDS011;2864;49.220;8.654;2022-12-07T00:59:32;15.87;;;11.70;;
5682;SDS011;2864;49.220;8.654;2022-12-07T01:01:57;17.90;;;12.30;;
5682;SDS011;2864;49.220;8.654;2022-12-07T01:04:23;16.47;;;12.03;;
5682;SDS011;2864;49.220;8.654;2022-12-07T01:06:49;19.10;;;12.17;;
5682;SDS011;2864;49.220;8.654;2022-12-07T01:09:15;16.17;;;11.73;;
5682;SDS011;2864;49.220;8.654;2022-12-07T01:11:41;20.47;;;11.60;;
5682;SDS011;2864;49.220;8.654;2022-12-07T01:14:08;18.87;;;12.67;;
5682;SDS011;2864;49.220;8.654;2022-12-07T01:16:34;17.73;;;12.70;;
5682;SDS011;2864;49.220;8.654;2022-12-07T01:19:00;20.50;;;11.90;;
5682;SDS011;2864;49.220;8.654;2022-12-07T01:21:27;18.67;;;12.67;;
5682;SDS011;2864;49.220;8.654;2022-12-07T01:23:59;18.00;;;12.83;;
5682;SDS011;2864;49.220;8.654;2022-12-07T01:26:25;19.17;;;12.20;;
5682;SDS011;2864;49.220;8.654;2022-12-07T01:28:51;18.93;;;12.13;;
5682;SDS011;2864;49.220;8.654;2022-12-07T01:31:23;18.20;;;12.93;;
5682;SDS011;2864;49.220;8.654;2022-12-07T01:33:51;16.60;;;12.17;;
5682;SDS011;2864;49.220;8.654;2022-12-07T01:36:20;18.53;;;12.67;;
5682;SDS011;2864;49.220;8.654;2022-12-07T01:39:00;19.17;;;13.27;;
5682;SDS011;2864;49.220;8.654;2022-12-07T01:41:29;19.30;;;13.20;;
5682;SDS011;2864;49.220;8.654;2022-12-07T01:46:41;25.97;;;14.93;;
5682;SDS011;2864;49.220;8.654;2022-12-07T01:49:09;20.47;;;14.53;;
5682;SDS011;2864;49.220;8.654;2022-12-07T01:51:38;21.87;;;14.97;;
5682;SDS011;2864;49.220;8.654;2022-12-07T01:54:06;20.87;;;13.93;;
5682;SDS011;2864;49.220;8.654;2022-12-07T01:56:33;17.77;;;13.37;;
5682;SDS011;2864;49.220;8.654;2022-12-07T01:58:59;19.87;;;14.17;;
5682;SDS011;2864;49.220;8.654;2022-12-07T02:01:25;19.63;;;13.90;;
5682;SDS011;2864;49.220;8.654;2022-12-07T02:03:51;19.07;;;14.30;;
5682;SDS011;2864;49.220;8.654;2022-12-07T02:06:19;22.47;;;14.60;;
5682;SDS011;2864;49.220;8.654;2022-12-07T02:08:48;19.77;;;13.77;;
5682;SDS011;2864;49.220;8.654;2022-12-07T02:11:14;21.40;;;13.80;;
5682;SDS011;2864;49.220;8.654;2022-12-07T02:13:41;19.83;;;13.70;;
5682;SDS011;2864;49.220;8.654;2022-12-07T02:21:44;19.10;;;13.33;;
5682;SDS011;2864;49.220;8.654;2022-12-07T02:27:45;20.10;;;13.43;;
5682;SDS011;2864;49.220;8.654;2022-12-07T02:30:20;20.90;;;14.13;;
5682;SDS011;2864;49.220;8.654;2022-12-07T02:33:11;21.80;;;14.13;;
5682;SDS011;2864;49.220;8.654;2022-12-07T02:35:43;19.83;;;13.33;;
5682;SDS011;2864;49.220;8.654;2022-12-07T02:38:20;22.20;;;14.63;;
5682;SDS011;2864;49.220;8.654;2022-12-07T02:41:12;20.93;;;13.47;;
5682;SDS011;2864;49.220;8.654;2022-12-07T02:43:47;17.83;;;12.80;;
5682;SDS011;2864;49.220;8.654;2022-12-07T02:46:25;23.07;;;13.97;;
5682;SDS011;2864;49.220;8.654;2022-12-07T02:49:00;20.53;;;13.83;;
5682;SDS011;2864;49.220;8.654;2022-12-07T02:51:29;20.80;;;13.40;;
5682;SDS011;2864;49.220;8.654;2022-12-07T02:53:56;18.97;;;13.23;;
5682;SDS011;2864;49.220;8.654;2022-12-07T02:59:34;23.17;;;14.77;;
5682;SDS011;2864;49.220;8.654;2022-12-07T03:02:13;21.57;;;13.40;;
5682;SDS011;2864;49.220;8.654;2022-12-07T03:07:39;22.73;;;14.07;;
5682;SDS011;2864;49.220;8.654;2022-12-07T03:10:16;21.23;;;13.47;;
5682;SDS011;2864;49.220;8.654;2022-12-07T03:13:09;21.40;;;14.17;;
5682;SDS011;2864;49.220;8.654;2022-12-07T03:19:00;21.67;;;14.23;;
5682;SDS011;2864;49.220;8.654;2022-12-07T03:21:34;25.73;;;15.53;;
5682;SDS011;2864;49.220;8.654;2022-12-07T03:24:06;21.90;;;15.57;;
5682;SDS011;2864;49.220;8.654;2022-12-07T03:26:38;23.00;;;14.83;;
5682;SDS011;2864;49.220;8.654;2022-12-07T03:29:08;22.67;;;15.93;;
5682;SDS011;2864;49.220;8.654;2022-12-07T03:31:42;22.60;;;14.87;;
5682;SDS011;2864;49.220;8.654;2022-12-07T03:34:18;24.73;;;16.17;;
5682;SDS011;2864;49.220;8.654;2022-12-07T03:36:55;27.20;;;15.70;;
5682;SDS011;2864;49.220;8.654;2022-12-07T03:39:37;24.10;;;15.40;;
5682;SDS011;2864;49.220;8.654;2022-12-07T03:42:06;26.43;;;16.23;;
5682;SDS011;2864;49.220;8.654;2022-12-07T03:44:34;27.53;;;15.87;;
5682;SDS011;2864;49.220;8.654;2022-12-07T03:49:31;27.30;;;15.70;;
5682;SDS011;2864;49.220;8.654;2022-12-07T03:54:41;24.03;;;15.67;;
5682;SDS011;2864;49.220;8.654;2022-12-07T03:57:09;23.20;;;15.70;;
5682;SDS011;2864;49.220;8.654;2022-12-07T03:59:37;22.50;;;15.10;;
5682;SDS011;2864;49.220;8.654;2022-12-07T04:02:04;40.13;;;16.60;;
5682;SDS011;2864;49.220;8.654;2022-12-07T04:04:31;24.00;;;15.40;;
5682;SDS011;2864;49.220;8.654;2022-12-07T04:06:57;22.17;;;15.93;;
5682;SDS011;2864;49.220;8.654;2022-12-07T04:09:22;26.20;;;15.77;;
5682;SDS011;2864;49.220;8.654;2022-12-07T04:11:48;26.27;;;14.60;;
5682;SDS011;2864;49.220;8.654;2022-12-07T04:14:14;26.27;;;15.90;;
5682;SDS011;2864;49.220;8.654;2022-12-07T04:16:43;24.77;;;16.30;;
5682;SDS011;2864;49.220;8.654;2022-12-07T04:19:09;23.13;;;15.30;;
5682;SDS011;2864;49.220;8.654;2022-12-07T04:21:35;26.73;;;15.87;;
5682;SDS011;2864;49.220;8.654;2022-12-07T04:24:01;22.67;;;15.93;;
5682;SDS011;2864;49.220;8.654;2022-12-07T04:26:26;25.33;;;16.17;;
5682;SDS011;2864;49.220;8.654;2022-12-07T04:28:52;30.53;;;16.60;;
5682;SDS011;2864;49.220;8.654;2022-12-07T04:31:18;28.13;;;16.73;;
5682;SDS011;2864;49.220;8.654;2022-12-07T04:33:44;25.53;;;16.30;;
5682;SDS011;2864;49.220;8.654;2022-12-07T04:36:10;24.67;;;15.70;;
5682;SDS011;2864;49.220;8.654;2022-12-07T04:38:35;25.13;;;15.97;;
5682;SDS011;2864;49.220;8.654;2022-12-07T04:41:05;25.30;;;15.17;;
5682;SDS011;2864;49.220;8.654;2022-12-07T04:43:31;26.63;;;16.47;;
5682;SDS011;2864;49.220;8.654;2022-12-07T04:45:57;27.97;;;16.03;;
5682;SDS011;2864;49.220;8.654;2022-12-07T04:48:23;25.07;;;17.13;;
5682;SDS011;2864;49.220;8.654;2022-12-07T04:50:48;28.13;;;15.17;;
5682;SDS011;2864;49.220;8.654;2022-12-07T04:53:17;24.30;;;15.17;;
5682;SDS011;2864;49.220;8.654;2022-12-07T04:55:43;24.17;;;15.77;;
5682;SDS011;2864;49.220;8.654;2022-12-07T04:58:10;26.43;;;16.90;;
5682;SDS011;2864;49.220;8.654;2022-12-07T05:00:36;22.60;;;14.70;;
5682;SDS011;2864;49.220;8.654;2022-12-07T05:03:01;26.57;;;15.47;;
5682;SDS011;2864;49.220;8.654;2022-12-07T05:05:27;25.90;;;15.57;;
5682;SDS011;2864;49.220;8.654;2022-12-07T05:07:53;21.60;;;14.87;;
5682;SDS011;2864;49.220;8.654;2022-12-07T05:10:19;25.87;;;15.37;;
5682;SDS011;2864;49.220;8.654;2022-12-07T05:12:45;24.23;;;15.50;;
5682;SDS011;2864;49.220;8.654;2022-12-07T05:15:11;24.13;;;15.10;;
5682;SDS011;2864;49.220;8.654;2022-12-07T05:17:37;25.27;;;15.37;;
5682;SDS011;2864;49.220;8.654;2022-12-07T05:20:02;23.90;;;14.70;;
5682;SDS011;2864;49.220;8.654;2022-12-07T05:22:28;20.67;;;13.07;;
5682;SDS011;2864;49.220;8.654;2022-12-07T05:24:54;25.73;;;14.63;;
5682;SDS011;2864;49.220;8.654;2022-12-07T05:27:20;20.67;;;14.90;;
5682;SDS011;2864;49.220;8.654;2022-12-07T05:29:46;21.50;;;14.77;;
5682;SDS011;2864;49.220;8.654;2022-12-07T05:32:12;27.90;;;17.10;;
5682;SDS011;2864;49.220;8.654;2022-12-07T05:34:38;23.50;;;15.30;;
5682;SDS011;2864;49.220;8.654;2022-12-07T05:37:03;20.07;;;13.67;;
5682;SDS011;2864;49.220;8.654;2022-12-07T05:39:29;18.10;;;11.03;;
5682;SDS011;2864;49.220;8.654;2022-12-07T05:41:54;22.10;;;15.33;;
5682;SDS011;2864;49.220;8.654;2022-12-07T05:44:45;22.50;;;14.33;;
5682;SDS011;2864;49.220;8.654;2022-12-07T05:47:12;22.03;;;14.67;;
5682;SDS011;2864;49.220;8.654;2022-12-07T05:49:39;21.80;;;14.07;;
5682;SDS011;2864;49.220;8.654;2022-12-07T05:52:05;25.27;;;12.53;;
5682;SDS011;2864;49.220;8.654;2022-12-07T05:54:31;22.23;;;14.47;;
5682;SDS011;2864;49.220;8.654;2022-12-07T05:56:57;20.80;;;14.00;;
5682;SDS011;2864;49.220;8.654;2022-12-07T05:59:23;20.63;;;13.63;;
5682;SDS011;2864;49.220;8.654;2022-12-07T06:01:53;26.60;;;14.57;;
5682;SDS011;2864;49.220;8.654;2022-12-07T06:04:22;21.87;;;14.30;;
5682;SDS011;2864;49.220;8.654;2022-12-07T06:06:48;21.03;;;14.83;;
5682;SDS011;2864;49.220;8.654;2022-12-07T06:09:14;19.93;;;13.60;;
5682;SDS011;2864;49.220;8.654;2022-12-07T06:11:40;21.63;;;14.60;;
5682;SDS011;2864;49.220;8.654;2022-12-07T06:14:25;22.13;;;13.70;;
5682;SDS011;2864;49.220;8.654;2022-12-07T06:16:50;21.00;;;13.60;;
5682;SDS011;2864;49.220;8.654;2022-12-07T06:19:16;20.97;;;13.53;;
5682;SDS011;2864;49.220;8.654;2022-12-07T06:21:42;20.53;;;13.13;;
5682;SDS011;2864;49.220;8.654;2022-12-07T06:24:11;19.63;;;13.13;;
5682;SDS011;2864;49.220;8.654;2022-12-07T06:26:38;18.73;;;13.43;;
5682;SDS011;2864;49.220;8.654;2022-12-07T06:29:04;20.80;;;13.13;;
5682;SDS011;2864;49.220;8.654;2022-12-07T06:31:30;21.73;;;14.03;;
5682;SDS011;2864;49.220;8.654;2022-12-07T06:34:00;19.53;;;14.27;;
5682;SDS011;2864;49.220;8.654;2022-12-07T06:36:30;21.67;;;13.67;;
5682;SDS011;2864;49.220;8.654;2022-12-07T06:38:56;17.57;;;11.70;;
5682;SDS011;2864;49.220;8.654;2022-12-07T06:41:22;18.97;;;13.47;;
5682;SDS011;2864;49.220;8.654;2022-12-07T06:43:48;21.23;;;14.63;;
5682;SDS011;2864;49.220;8.654;2022-12-07T06:46:14;22.33;;;14.13;;
5682;SDS011;2864;49.220;8.654;2022-12-07T06:48:41;20.90;;;13.87;;
5682;SDS011;2864;49.220;8.654;2022-12-07T06:51:07;21.77;;;14.30;;
5682;SDS011;2864;49.220;8.654;2022-12-07T06:53:33;22.80;;;13.70;;
5682;SDS011;2864;49.220;8.654;2022-12-07T06:55:59;23.43;;;14.60;;
5682;SDS011;2864;49.220;8.654;2022-12-07T06:58:24;20.60;;;13.87;;
5682;SDS011;2864;49.220;8.654;2022-12-07T07:00:50;19.87;;;13.70;;
5682;SDS011;2864;49.220;8.654;2022-12-07T07:03:16;18.67;;;12.50;;
5682;SDS011;2864;49.220;8.654;2022-12-07T07:05:42;22.17;;;13.60;;
5682;SDS011;2864;49.220;8.654;2022-12-07T07:08:08;21.10;;;13.07;;
5682;SDS011;2864;49.220;8.654;2022-12-07T07:10:35;22.57;;;14.00;;
5682;SDS011;2864;49.220;8.654;2022-12-07T07:13:01;19.80;;;13.53;;
5682;SDS011;2864;49.220;8.654;2022-12-07T07:15:27;21.17;;;13.77;;
5682;SDS011;2864;49.220;8.654;2022-12-07T07:17:52;22.53;;;13.80;;
5682;SDS011;2864;49.220;8.654;2022-12-07T07:20:19;21.07;;;13.73;;
5682;SDS011;2864;49.220;8.654;2022-12-07T07:22:45;25.87;;;14.27;;
5682;SDS011;2864;49.220;8.654;2022-12-07T07:25:11;27.40;;;14.30;;
5682;SDS011;2864;49.220;8.654;2022-12-07T07:27:37;23.10;;;13.40;;
5682;SDS011;2864;49.220;8.654;2022-12-07T07:30:03;21.37;;;13.20;;
5682;SDS011;2864;49.220;8.654;2022-12-07T07:32:29;18.93;;;12.37;;
5682;SDS011;2864;49.220;8.654;2022-12-07T07:34:55;23.10;;;14.13;;
5682;SDS011;2864;49.220;8.654;2022-12-07T07:37:21;22.20;;;14.03;;
5682;SDS011;2864;49.220;8.654;2022-12-07T07:39:47;20.80;;;13.80;;
5682;SDS011;2864;49.220;8.654;2022-12-07T07:42:13;20.50;;;14.43;;
5682;SDS011;2864;49.220;8.654;2022-12-07T07:44:39;23.77;;;13.80;;
5682;SDS011;2864;49.220;8.654;2022-12-07T07:47:05;17.93;;;12.57;;
5682;SDS011;2864;49.220;8.654;2022-12-07T07:49:31;18.17;;;12.70;;
5682;SDS011;2864;49.220;8.654;2022-12-07T07:51:57;18.47;;;12.83;;
5682;SDS011;2864;49.220;8.654;2022-12-07T07:54:23;20.70;;;13.50;;
5682;SDS011;2864;49.220;8.654;2022-12-07T07:56:48;19.40;;;13.33;;
5682;SDS011;2864;49.220;8.654;2022-12-07T07:59:14;20.10;;;13.60;;
5682;SDS011;2864;49.220;8.654;2022-12-07T08:01:40;17.80;;;12.43;;
5682;SDS011;2864;49.220;8.654;2022-12-07T08:04:06;18.57;;;12.43;;
5682;SDS011;2864;49.220;8.654;2022-12-07T08:06:32;19.10;;;12.80;;
5682;SDS011;2864;49.220;8.654;2022-12-07T08:08:58;23.17;;;13.30;;
5682;SDS011;2864;49.220;8.654;2022-12-07T08:11:24;18.17;;;12.70;;
5682;SDS011;2864;49.220;8.654;2022-12-07T08:13:50;17.93;;;12.90;;
5682;SDS011;2864;49.220;8.654;2022-12-07T08:16:16;18.97;;;12.57;;
5682;SDS011;2864;49.220;8.654;2022-12-07T08:18:42;15.90;;;11.63;;
5682;SDS011;2864;49.220;8.654;2022-12-07T08:21:12;15.37;;;10.87;;
5682;SDS011;2864;49.220;8.654;2022-12-07T08:23:40;18.13;;;12.07;;
5682;SDS011;2864;49.220;8.654;2022-12-07T08:26:09;18.77;;;12.17;;
5682;SDS011;2864;49.220;8.654;2022-12-07T08:28:36;17.83;;;11.17;;
5682;SDS011;2864;49.220;8.654;2022-12-07T08:31:03;17.40;;;12.23;;
5682;SDS011;2864;49.220;8.654;2022-12-07T08:33:31;16.83;;;12.30;;
5682;SDS011;2864;49.220;8.654;2022-12-07T08:36:15;17.33;;;11.27;;
5682;SDS011;2864;49.220;8.654;2022-12-07T08:38:42;16.73;;;11.97;;
5682;SDS011;2864;49.220;8.654;2022-12-07T08:41:08;15.53;;;10.83;;
5682;SDS011;2864;49.220;8.654;2022-12-07T08:43:34;16.43;;;11.47;;
5682;SDS011;2864;49.220;8.654;2022-12-07T08:46:08;16.93;;;10.90;;
5682;SDS011;2864;49.220;8.654;2022-12-07T08:48:48;16.67;;;10.90;;
5682;SDS011;2864;49.220;8.654;2022-12-07T08:51:36;17.37;;;10.80;;
5682;SDS011;2864;49.220;8.654;2022-12-07T08:54:04;21.70;;;10.90;;
5682;SDS011;2864;49.220;8.654;2022-12-07T08:56:33;17.50;;;11.27;;
5682;SDS011;2864;49.220;8.654;2022-12-07T08:58:59;14.13;;;10.40;;
5682;SDS011;2864;49.220;8.654;2022-12-07T09:03:54;14.60;;;10.07;;
5682;SDS011;2864;49.220;8.654;2022-12-07T09:06:20;19.70;;;11.27;;
5682;SDS011;2864;49.220;8.654;2022-12-07T09:08:47;13.90;;;9.80;;
5682;SDS011;2864;49.220;8.654;2022-12-07T09:11:15;15.67;;;10.10;;
5682;SDS011;2864;49.220;8.654;2022-12-07T09:13:41;14.33;;;10.20;;
5682;SDS011;2864;49.220;8.654;2022-12-07T09:16:07;15.77;;;9.77;;
5682;SDS011;2864;49.220;8.654;2022-12-07T09:18:33;16.37;;;10.70;;
5682;SDS011;2864;49.220;8.654;2022-12-07T09:20:58;13.20;;;9.43;;
5682;SDS011;2864;49.220;8.654;2022-12-07T09:23:24;12.80;;;9.50;;
5682;SDS011;2864;49.220;8.654;2022-12-07T09:25:50;16.03;;;10.40;;
5682;SDS011;2864;49.220;8.654;2022-12-07T09:28:16;15.93;;;10.93;;
5682;SDS011;2864;49.220;8.654;2022-12-07T09:30:46;16.50;;;10.13;;
5682;SDS011;2864;49.220;8.654;2022-12-07T09:33:12;17.70;;;11.10;;
5682;SDS011;2864;49.220;8.654;2022-12-07T09:35:43;17.33;;;10.73;;
5682;SDS011;2864;49.220;8.654;2022-12-07T09:38:10;15.87;;;11.10;;
5682;SDS011;2864;49.220;8.654;2022-12-07T09:40:36;16.77;;;10.23;;
5682;SDS011;2864;49.220;8.654;2022-12-07T09:43:01;15.73;;;10.53;;
5682;SDS011;2864;49.220;8.654;2022-12-07T09:45:30;17.80;;;11.17;;
5682;SDS011;2864;49.220;8.654;2022-12-07T09:47:59;20.20;;;12.53;;
5682;SDS011;2864;49.220;8.654;2022-12-07T09:50:25;18.53;;;11.20;;
5682;SDS011;2864;49.220;8.654;2022-12-07T09:52:53;20.03;;;11.60;;
5682;SDS011;2864;49.220;8.654;2022-12-07T09:55:33;14.87;;;10.67;;
5682;SDS011;2864;49.220;8.654;2022-12-07T09:58:00;17.30;;;10.77;;
5682;SDS011;2864;49.220;8.654;2022-12-07T10:00:26;15.83;;;10.63;;
5682;SDS011;2864;49.220;8.654;2022-12-07T10:03:00;16.03;;;11.20;;
5682;SDS011;2864;49.220;8.654;2022-12-07T10:05:28;17.30;;;10.33;;
5682;SDS011;2864;49.220;8.654;2022-12-07T10:07:59;12.80;;;8.77;;
5682;SDS011;2864;49.220;8.654;2022-12-07T10:10:32;17.03;;;10.50;;
5682;SDS011;2864;49.220;8.654;2022-12-07T10:20:46;14.20;;;9.77;;
5682;SDS011;2864;49.220;8.654;2022-12-07T10:23:16;14.57;;;10.17;;
5682;SDS011;2864;49.220;8.654;2022-12-07T10:25:43;16.40;;;10.27;;
5682;SDS011;2864;49.220;8.654;2022-12-07T10:28:13;14.63;;;10.30;;
5682;SDS011;2864;49.220;8.654;2022-12-07T10:35:54;13.47;;;9.07;;
5682;SDS011;2864;49.220;8.654;2022-12-07T10:38:19;13.13;;;9.43;;
5682;SDS011;2864;49.220;8.654;2022-12-07T10:40:45;14.33;;;9.73;;
5682;SDS011;2864;49.220;8.654;2022-12-07T10:48:17;14.73;;;9.03;;
5682;SDS011;2864;49.220;8.654;2022-12-07T10:53:44;14.13;;;9.70;;
5682;SDS011;2864;49.220;8.654;2022-12-07T10:59:26;11.47;;;8.50;;
5682;SDS011;2864;49.220;8.654;2022-12-07T11:10:36;12.17;;;8.63;;
5682;SDS011;2864;49.220;8.654;2022-12-07T11:13:27;11.73;;;8.93;;
5682;SDS011;2864;49.220;8.654;2022-12-07T11:21:52;13.27;;;9.27;;
5682;SDS011;2864;49.220;8.654;2022-12-07T11:30:38;14.00;;;9.20;;
5682;SDS011;2864;49.220;8.654;2022-12-07T11:33:17;16.10;;;9.00;;
5682;SDS011;2864;49.220;8.654;2022-12-07T11:38:22;13.33;;;9.10;;
5682;SDS011;2864;49.220;8.654;2022-12-07T11:41:09;17.00;;;9.33;;
5682;SDS011;2864;49.220;8.654;2022-12-07T11:43:42;12.97;;;9.27;;
5682;SDS011;2864;49.220;8.654;2022-12-07T11:47:09;12.10;;;8.63;;
5682;SDS011;2864;49.220;8.654;2022-12-07T11:51:53;18.20;;;9.97;;
5682;SDS011;2864;49.220;8.654;2022-12-07T11:54:28;12.17;;;8.73;;
5682;SDS011;2864;49.220;8.654;2022-12-07T11:57:01;14.93;;;9.63;;
5682;SDS011;2864;49.220;8.654;2022-12-07T11:59:35;13.67;;;9.03;;
5682;SDS011;2864;49.220;8.654;2022-12-07T12:02:14;12.80;;;8.83;;
5682;SDS011;2864;49.220;8.654;2022-12-07T12:04:59;13.70;;;9.10;;
5682;SDS011;2864;49.220;8.654;2022-12-07T12:07:27;12.73;;;8.97;;
5682;SDS011;2864;49.220;8.654;2022-12-07T12:09:54;14.03;;;8.93;;
5682;SDS011;2864;49.220;8.654;2022-12-07T12:15:34;12.67;;;8.77;;
5682;SDS011;2864;49.220;8.654;2022-12-07T12:18:22;14.07;;;8.80;;
5682;SDS011;2864;49.220;8.654;2022-12-07T12:21:09;13.30;;;8.93;;
5682;SDS011;2864;49.220;8.654;2022-12-07T12:23:43;13.47;;;9.20;;
5682;SDS011;2864;49.220;8.654;2022-12-07T12:26:26;15.87;;;9.07;;
5682;SDS011;2864;49.220;8.654;2022-12-07T12:33:59;17.10;;;9.20;;
5682;SDS011;2864;49.220;8.654;2022-12-07T12:46:45;14.57;;;9.60;;
5682;SDS011;2864;49.220;8.654;2022-12-07T12:51:48;12.97;;;8.77;;
5682;SDS011;2864;49.220;8.654;2022-12-07T12:54:34;13.17;;;8.33;;
5682;SDS011;2864;49.220;8.654;2022-12-07T12:57:15;13.77;;;9.40;;
5682;SDS011;2864;49.220;8.654;2022-12-07T13:02:25;13.23;;;9.20;;
5682;SDS011;2864;49.220;8.654;2022-12-07T13:04:56;14.10;;;9.03;;
5682;SDS011;2864;49.220;8.654;2022-12-07T13:13:01;14.00;;;9.47;;
5682;SDS011;2864;49.220;8.654;2022-12-07T13:15:37;13.73;;;9.47;;
5682;SDS011;2864;49.220;8.654;2022-12-07T13:23:17;13.50;;;9.17;;
5682;SDS011;2864;49.220;8.654;2022-12-07T13:28:23;18.10;;;9.23;;
5682;SDS011;2864;49.220;8.654;2022-12-07T13:33:36;17.23;;;8.80;;
5682;SDS011;2864;49.220;8.654;2022-12-07T13:36:02;13.63;;;8.70;;
5682;SDS011;2864;49.220;8.654;2022-12-07T13:38:29;12.80;;;8.10;;
5682;SDS011;2864;49.220;8.654;2022-12-07T13:43:27;13.37;;;9.03;;
5682;SDS011;2864;49.220;8.654;2022-12-07T13:45:56;13.13;;;8.50;;
5682;SDS011;2864;49.220;8.654;2022-12-07T13:53:50;14.27;;;8.10;;
5682;SDS011;2864;49.220;8.654;2022-12-07T13:56:21;12.37;;;7.40;;
5682;SDS011;2864;49.220;8.654;2022-12-07T13:58:50;11.50;;;7.90;;
5682;SDS011;2864;49.220;8.654;2022-12-07T14:01:16;12.00;;;8.13;;
5682;SDS011;2864;49.220;8.654;2022-12-07T14:03:41;12.70;;;8.37;;
5682;SDS011;2864;49.220;8.654;2022-12-07T14:06:13;12.43;;;8.73;;
5682;SDS011;2864;49.220;8.654;2022-12-07T14:08:42;13.10;;;8.90;;
5682;SDS011;2864;49.220;8.654;2022-12-07T14:11:18;15.63;;;8.53;;
5682;SDS011;2864;49.220;8.654;2022-12-07T14:18:49;16.53;;;8.53;;
5682;SDS011;2864;49.220;8.654;2022-12-07T14:21:19;12.27;;;8.73;;
5682;SDS011;2864;49.220;8.654;2022-12-07T14:24:09;17.53;;;10.23;;
5682;SDS011;2864;49.220;8.654;2022-12-07T14:26:44;13.63;;;8.50;;
5682;SDS011;2864;49.220;8.654;2022-12-07T14:29:21;12.40;;;8.37;;
5682;SDS011;2864;49.220;8.654;2022-12-07T14:31:58;15.03;;;9.63;;
5682;SDS011;2864;49.220;8.654;2022-12-07T14:34:37;15.13;;;9.47;;
5682;SDS011;2864;49.220;8.654;2022-12-07T14:37:03;18.03;;;9.53;;
5682;SDS011;2864;49.220;8.654;2022-12-07T14:39:29;15.33;;;9.73;;
5682;SDS011;2864;49.220;8.654;2022-12-07T14:41:55;15.90;;;10.37;;
5682;SDS011;2864;49.220;8.654;2022-12-07T14:44:21;15.33;;;10.53;;
5682;SDS011;2864;49.220;8.654;2022-12-07T14:46:48;15.33;;;9.57;;
5682;SDS011;2864;49.220;8.654;2022-12-07T14:49:14;13.93;;;9.57;;
5682;SDS011;2864;49.220;8.654;2022-12-07T14:51:40;15.40;;;9.43;;
5682;SDS011;2864;49.220;8.654;2022-12-07T14:54:14;15.87;;;9.37;;
5682;SDS011;2864;49.220;8.654;2022-12-07T14:56:42;14.10;;;9.00;;
5682;SDS011;2864;49.220;8.654;2022-12-07T14:59:09;15.70;;;9.00;;
5682;SDS011;2864;49.220;8.654;2022-12-07T15:01:36;13.80;;;8.93;;
5682;SDS011;2864;49.220;8.654;2022-12-07T15:04:02;14.03;;;9.07;;
5682;SDS011;2864;49.220;8.654;2022-12-07T15:06:27;16.93;;;10.63;;
5682;SDS011;2864;49.220;8.654;2022-12-07T15:08:53;13.67;;;9.50;;
5682;SDS011;2864;49.220;8.654;2022-12-07T15:11:20;14.13;;;9.70;;
5682;SDS011;2864;49.220;8.654;2022-12-07T15:13:46;15.20;;;9.87;;
5682;SDS011;2864;49.220;8.654;2022-12-07T15:16:31;17.87;;;10.73;;
5682;SDS011;2864;49.220;8.654;2022-12-07T15:18:57;20.63;;;10.13;;
5682;SDS011;2864;49.220;8.654;2022-12-07T15:21:23;21.33;;;10.50;;
5682;SDS011;2864;49.220;8.654;2022-12-07T15:23:49;18.80;;;10.27;;
5682;SDS011;2864;49.220;8.654;2022-12-07T15:26:15;16.80;;;10.27;;
5682;SDS011;2864;49.220;8.654;2022-12-07T15:28:41;19.60;;;10.73;;
5682;SDS011;2864;49.220;8.654;2022-12-07T15:31:11;18.40;;;10.53;;
5682;SDS011;2864;49.220;8.654;2022-12-07T15:33:37;16.73;;;9.47;;
5682;SDS011;2864;49.220;8.654;2022-12-07T15:36:03;15.53;;;9.77;;
5682;SDS011;2864;49.220;8.654;2022-12-07T15:38:29;15.63;;;9.10;;
5682;SDS011;2864;49.220;8.654;2022-12-07T15:40:56;15.90;;;10.20;;
5682;SDS011;2864;49.220;8.654;2022-12-07T15:43:21;15.00;;;10.33;;
5682;SDS011;2864;49.220;8.654;2022-12-07T15:46:07;15.97;;;10.03;;
5682;SDS011;2864;49.220;8.654;2022-12-07T15:48:33;13.17;;;9.67;;
5682;SDS011;2864;49.220;8.654;2022-12-07T15:51:06;17.97;;;9.83;;
5682;SDS011;2864;49.220;8.654;2022-12-07T15:53:32;11.90;;;8.53;;
5682;SDS011;2864;49.220;8.654;2022-12-07T15:55:58;16.57;;;9.77;;
5682;SDS011;2864;49.220;8.654;2022-12-07T15:58:24;12.43;;;8.00;;
5682;SDS011;2864;49.220;8.654;2022-12-07T16:00:50;16.37;;;9.03;;
5682;SDS011;2864;49.220;8.654;2022-12-07T16:03:16;14.53;;;9.63;;
5682;SDS011;2864;49.220;8.654;2022-12-07T16:05:48;13.07;;;8.33;;
5682;SDS011;2864;49.220;8.654;2022-12-07T16:08:14;12.83;;;9.23;;
5682;SDS011;2864;49.220;8.654;2022-12-07T16:10:40;15.43;;;9.27;;
5682;SDS011;2864;49.220;8.654;2022-12-07T16:13:08;12.77;;;8.93;;
5682;SDS011;2864;49.220;8.654;2022-12-07T16:15:37;15.77;;;9.63;;
5682;SDS011;2864;49.220;8.654;2022-12-07T16:18:07;14.40;;;9.23;;
5682;SDS011;2864;49.220;8.654;2022-12-07T16:20:33;20.50;;;9.20;;
5682;SDS011;2864;49.220;8.654;2022-12-07T16:22:59;14.53;;;9.90;;
5682;SDS011;2864;49.220;8.654;2022-12-07T16:25:25;16.23;;;9.77;;
5682;SDS011;2864;49.220;8.654;2022-12-07T16:27:51;17.00;;;9.13;;
5682;SDS011;2864;49.220;8.654;2022-12-07T16:30:17;16.73;;;10.27;;
5682;SDS011;2864;49.220;8.654;2022-12-07T16:32:43;12.63;;;9.33;;
5682;SDS011;2864;49.220;8.654;2022-12-07T16:35:09;16.10;;;9.57;;
5682;SDS011;2864;49.220;8.654;2022-12-07T16:37:36;14.23;;;9.03;;
5682;SDS011;2864;49.220;8.654;2022-12-07T16:40:02;14.47;;;9.20;;
5682;SDS011;2864;49.220;8.654;2022-12-07T16:42:32;14.43;;;10.07;;
5682;SDS011;2864;49.220;8.654;2022-12-07T16:44:59;15.27;;;10.40;;
5682;SDS011;2864;49.220;8.654;2022-12-07T16:47:25;18.37;;;10.97;;
5682;SDS011;2864;49.220;8.654;2022-12-07T16:49:51;17.40;;;11.07;;
5682;SDS011;2864;49.220;8.654;2022-12-07T16:52:17;16.03;;;11.37;;
5682;SDS011;2864;49.220;8.654;2022-12-07T16:54:43;19.53;;;11.23;;
5682;SDS011;2864;49.220;8.654;2022-12-07T16:57:09;17.07;;;10.90;;
5682;SDS011;2864;49.220;8.654;2022-12-07T16:59:35;16.17;;;11.43;;
5682;SDS011;2864;49.220;8.654;2022-12-07T17:02:01;19.50;;;11.83;;
5682;SDS011;2864;49.220;8.654;2022-12-07T17:04:28;19.20;;;11.20;;
5682;SDS011;2864;49.220;8.654;2022-12-07T17:06:54;17.27;;;11.13;;
5682;SDS011;2864;49.220;8.654;2022-12-07T17:09:20;20.40;;;12.30;;
5682;SDS011;2864;49.220;8.654;2022-12-07T17:11:46;17.57;;;11.80;;